Time;durP1;ratioP1;P1;durP2;ratioP2;P2;SDS_P1;SDS_P2;PMS_P1;PMS_P2;Temp;Humidity;BMP_temperature;BMP_pressure;BME280_temperature;BME280_humidity;BME280_pressure;Samples;Min_cycle;Max_cycle;Signal;HPM_P1;HPM_P2
2022/10/24 00:00:21;;;;;;;;;;;;;;;;;;4986736;28;19957;-82
2022/10/24 00:02:47;;;;;;;;;;;;;;;;;;4989756;28;19996;-78
2022/10/24 00:05:13;;;;;;;;;;;;;;;;;;4969670;28;19918;-82
2022/10/24 00:07:40;;;;;;;;;;;;;;;;;;4984897;28;19965;-82
2022/10/24 00:10:06;;;;;;;;;;;;;;;;;;4986367;28;19945;-82
2022/10/24 00:12:32;;;;;;;;;;;;;;;;;;4984095;28;20008;-82
2022/10/24 00:14:58;;;;;;;;;;;;;;;;;;4991819;28;19949;-82
2022/10/24 00:17:24;;;;;;;;;;;;;;;;;;4984533;28;19945;-81
2022/10/24 00:19:53;;;;;;;;;;;;;;;;;;4978695;28;19957;-83
2022/10/24 00:22:19;;;;;;;;;;;;;;;;;;4970680;28;19965;-83
2022/10/24 00:24:45;;;;;;;;;;;;;;;;;;4985529;28;19953;-84
2022/10/24 00:27:11;;;;;;;;;;;;;;;;;;4953664;28;19965;-83
2022/10/24 00:29:37;;;;;;;;;;;;;;;;;;4986939;28;19984;-84
2022/10/24 00:32:03;;;;;;;;;;;;;;;;;;4983765;28;19981;-83
2022/10/24 00:34:30;;;;;;;;;;;;;;;;;;4988080;28;20392;-83
2022/10/24 00:36:56;;;;;;;;;;;;;;;;;;4950882;28;19964;-82
2022/10/24 00:39:22;;;;;;;;;;;;;;;;;;4988126;28;19965;-83
2022/10/24 00:41:48;;;;;;;;;;;;;;;;;;4969155;28;19921;-82
2022/10/24 00:44:14;;;;;;;;;;;;;;;;;;4990708;28;19977;-83
2022/10/24 00:46:41;;;;;;;;;;;;;;;;;;4972752;28;19972;-83
2022/10/24 00:49:07;;;;;;;;;;;;;;;;;;4991444;28;19957;-83
2022/10/24 00:51:33;;;;;;;;;;;;;;;;;;4984914;28;19968;-83
2022/10/24 00:53:59;;;;;;;;;;;;;;;;;;4966571;28;19965;-82
2022/10/24 00:56:25;;;;;;;;;;;;;;;;;;4987671;28;19917;-82
2022/10/24 00:58:52;;;;;;;;;;;;;;;;;;4985361;28;20402;-81
2022/10/24 01:01:18;;;;;;;;;;;;;;;;;;4986298;28;19969;-82
2022/10/24 01:03:44;;;;;;;;;;;;;;;;;;4968855;28;20023;-82
2022/10/24 01:06:10;;;;;;;;;;;;;;;;;;4967822;28;19957;-82
2022/10/24 01:08:36;;;;;;;;;;;;;;;;;;4986729;28;20382;-81
2022/10/24 01:11:02;;;;;;;;;;;;;;;;;;4968363;28;19976;-81
2022/10/24 01:13:29;;;;;;;;;;;;;;;;;;4985385;28;20334;-82
2022/10/24 01:15:55;;;;;;;;;;;;;;;;;;4990606;28;20372;-81
2022/10/24 01:18:21;;;;;;;;;;;;;;;;;;4986421;28;20044;-81
2022/10/24 01:20:48;;;;;;;;;;;;;;;;;;4986046;28;19965;-80
2022/10/24 01:23:14;;;;;;;;;;;;;;;;;;4985787;28;19980;-82
2022/10/24 01:25:41;;;;;;;;;;;;;;;;;;4970798;28;19943;-81
2022/10/24 01:28:07;;;;;;;;;;;;;;;;;;4985001;28;20345;-81
2022/10/24 01:30:33;;;;;;;;;;;;;;;;;;4987432;28;19976;-85
2022/10/24 01:32:59;;;;;;;;;;;;;;;;;;4987478;28;19918;-82
2022/10/24 01:35:26;;;;;;;;;;;;;;;;;;4986016;28;19957;-82
2022/10/24 01:37:52;;;;;;;;;;;;;;;;;;4970867;28;19957;-82
2022/10/24 01:40:18;;;;;;;;;;;;;;;;;;4985270;28;19952;-83
2022/10/24 01:42:45;;;;;;;;;;;;;;;;;;4968663;28;20402;-83
2022/10/24 01:45:11;;;;;;;;;;;;;;;;;;4982362;28;19960;-83
2022/10/24 01:47:37;;;;;;;;;;;;;;;;;;4986125;28;19961;-83
2022/10/24 01:50:03;;;;;;;;;;;;;;;;;;4983782;28;19964;-84
2022/10/24 01:52:29;;;;;;;;;;;;;;;;;;4986264;28;19953;-84
2022/10/24 01:54:55;;;;;;;;;;;;;;;;;;4985775;28;20036;-84
2022/10/24 01:57:22;;;;;;;;;;;;;;;;;;4965895;28;19953;-85
2022/10/24 01:59:48;;;;;;;;;;;;;;;;;;4986773;28;20441;-81
2022/10/24 02:02:14;;;;;;;;;;;;;;;;;;4989941;28;19957;-84
2022/10/24 02:04:40;;;;;;;;;;;;;;;;;;4973701;28;19922;-84
2022/10/24 02:07:07;;;;;;;;;;;;;;;;;;4989523;28;20323;-84
2022/10/24 02:09:33;;;;;;;;;;;;;;;;;;4994125;28;20451;-84
2022/10/24 02:11:59;;;;;;;;;;;;;;;;;;4977537;28;20002;-83
2022/10/24 02:14:25;;;;;;;;;;;;;;;;;;4985709;28;19990;-84
2022/10/24 02:16:51;;;;;;;;;;;;;;;;;;4989104;28;19968;-83
2022/10/24 02:19:18;;;;;;;;;;;;;;;;;;4990879;28;19965;-84
2022/10/24 02:21:44;;;;;;;;;;;;;;;;;;4982344;28;19945;-83
2022/10/24 02:24:10;;;;;;;;;;;;;;;;;;4985156;28;19958;-83
2022/10/24 02:26:36;;;;;;;;;;;;;;;;;;4998393;28;19945;-84
2022/10/24 02:29:02;;;;;;;;;;;;;;;;;;4977177;28;19976;-84
2022/10/24 02:31:28;;;;;;;;;;;;;;;;;;4990983;28;20044;-84
2022/10/24 02:33:55;;;;;;;;;;;;;;;;;;4989134;28;19975;-84
2022/10/24 02:36:21;;;;;;;;;;;;;;;;;;4992763;28;20017;-84
2022/10/24 02:38:47;;;;;;;;;;;;;;;;;;4987421;28;19981;-84
2022/10/24 02:41:13;;;;;;;;;;;;;;;;;;4986585;28;20530;-84
2022/10/24 02:43:39;;;;;;;;;;;;;;;;;;4969100;28;20355;-83
2022/10/24 02:46:06;;;;;;;;;;;;;;;;;;4972963;28;19921;-84
2022/10/24 02:48:32;;;;;;;;;;;;;;;;;;4989846;28;20523;-83
2022/10/24 02:50:58;;;;;;;;;;;;;;;;;;4988504;28;20487;-84
2022/10/24 02:53:24;;;;;;;;;;;;;;;;;;4980197;28;19969;-84
2022/10/24 02:55:50;;;;;;;;;;;;;;;;;;4988642;28;20048;-83
2022/10/24 02:58:17;;;;;;;;;;;;;;;;;;4985641;28;19992;-85
2022/10/24 03:00:43;;;;;;;;;;;;;;;;;;4988864;28;20025;-84
2022/10/24 03:03:09;;;;;;;;;;;;;;;;;;4988903;28;20035;-84
2022/10/24 03:05:35;;;;;;;;;;;;;;;;;;4989836;28;19961;-84
2022/10/24 03:08:01;;;;;;;;;;;;;;;;;;4975440;28;19960;-84
2022/10/24 03:10:28;;;;;;;;;;;;;;;;;;4971655;28;20443;-84
2022/10/24 03:12:54;;;;;;;;;;;;;;;;;;4990576;28;19964;-84
2022/10/24 03:15:20;;;;;;;;;;;;;;;;;;4985801;28;20030;-82
2022/10/24 03:17:48;;;;;;;;;;;;;;;;;;4987090;28;19954;-83
2022/10/24 03:20:14;;;;;;;;;;;;;;;;;;4970579;28;21344;-82
2022/10/24 03:22:40;;;;;;;;;;;;;;;;;;4954373;28;20660;-82
2022/10/24 03:25:06;;;;;;;;;;;;;;;;;;4988193;28;19965;-82
2022/10/24 03:27:35;;;;;;;;;;;;;;;;;;4987736;28;19960;-82
2022/10/24 03:30:02;;;;;;;;;;;;;;;;;;4999776;28;19937;-82
2022/10/24 03:32:28;;;;;;;;;;;;;;;;;;4985711;28;19957;-82
2022/10/24 03:34:54;;;;;;;;;;;;;;;;;;4986116;28;19949;-82
2022/10/24 03:37:20;;;;;;;;;;;;;;;;;;4989016;28;19984;-83
2022/10/24 03:39:46;;;;;;;;;;;;;;;;;;5003166;28;19972;-83
2022/10/24 03:42:13;;;;;;;;;;;;;;;;;;4985380;28;19926;-83
2022/10/24 03:44:39;;;;;;;;;;;;;;;;;;4987245;28;20502;-82
2022/10/24 03:47:05;;;;;;;;;;;;;;;;;;4982622;28;19949;-81
2022/10/24 03:49:32;;;;;;;;;;;;;;;;;;4986585;28;19945;-83
2022/10/24 03:51:58;;;;;;;;;;;;;;;;;;4984514;28;19963;-81
2022/10/24 03:54:24;;;;;;;;;;;;;;;;;;4986481;28;19960;-82
2022/10/24 03:56:50;;;;;;;;;;;;;;;;;;4987137;28;20167;-83
2022/10/24 03:59:17;;;;;;;;;;;;;;;;;;4984105;28;19968;-82
2022/10/24 04:01:43;;;;;;;;;;;;;;;;;;4987295;28;20349;-78
2022/10/24 04:04:09;;;;;;;;;;;;;;;;;;4980936;28;19953;-79
2022/10/24 04:06:35;;;;;;;;;;;;;;;;;;4988042;28;19958;-79
2022/10/24 04:09:02;;;;;;;;;;;;;;;;;;4992266;28;20431;-79
2022/10/24 04:11:28;;;;;;;;;;;;;;;;;;4988570;28;19967;-79
2022/10/24 04:13:54;;;;;;;;;;;;;;;;;;4987629;28;19953;-79
2022/10/24 04:16:22;;;;;;;;;;;;;;;;;;4986795;28;20330;-79
2022/10/24 04:18:49;;;;;;;;;;;;;;;;;;4986224;28;20016;-78
2022/10/24 04:21:15;;;;;;;;;;;;;;;;;;4998908;28;20362;-80
2022/10/24 04:23:43;;;;;;;;;;;;;;;;;;4988967;28;19975;-79
2022/10/24 04:26:09;;;;;;;;;;;;;;;;;;4986301;28;20612;-79
2022/10/24 04:28:35;;;;;;;;;;;;;;;;;;4987591;28;19953;-79
2022/10/24 04:31:02;;;;;;;;;;;;;;;;;;4981849;28;20236;-79
2022/10/24 04:33:28;;;;;;;;;;;;;;;;;;4995853;28;19985;-83
2022/10/24 04:35:54;;;;;;;;;;;;;;;;;;4987002;28;20040;-81
2022/10/24 04:38:21;;;;;;;;;;;;;;;;;;4987501;28;19977;-82
2022/10/24 04:40:47;;;;;;;;;;;;;;;;;;4988824;28;20016;-83
2022/10/24 04:43:13;;;;;;;;;;;;;;;;;;5002177;28;19949;-83
2022/10/24 04:45:39;;;;;;;;;;;;;;;;;;4990182;28;19953;-82
2022/10/24 04:48:05;;;;;;;;;;;;;;;;;;4991697;28;19922;-83
2022/10/24 04:50:31;;;;;;;;;;;;;;;;;;4986945;28;19925;-82
2022/10/24 04:52:58;;;;;;;;;;;;;;;;;;5008939;28;19964;-83
2022/10/24 04:55:24;;;;;;;;;;;;;;;;;;4989313;28;19957;-82
2022/10/24 04:57:50;;;;;;;;;;;;;;;;;;4984106;28;20539;-82
2022/10/24 05:00:16;;;;;;;;;;;;;;;;;;4980510;28;19949;-82
2022/10/24 05:02:42;;;;;;;;;;;;;;;;;;4987497;28;19953;-82
2022/10/24 05:05:09;;;;;;;;;;;;;;;;;;4984473;28;19961;-82
2022/10/24 05:07:35;;;;;;;;;;;;;;;;;;4986031;28;20393;-82
2022/10/24 05:10:01;;;;;;;;;;;;;;;;;;4985704;28;19960;-82
2022/10/24 05:12:28;;;;;;;;;;;;;;;;;;4985197;28;20315;-82
2022/10/24 05:14:54;;;;;;;;;;;;;;;;;;4989092;28;19914;-82
2022/10/24 05:17:20;;;;;;;;;;;;;;;;;;4985894;28;19968;-83
2022/10/24 05:19:46;;;;;;;;;;;;;;;;;;4981896;28;19968;-83
2022/10/24 05:22:12;;;;;;;;;;;;;;;;;;4982799;28;19961;-82
2022/10/24 05:24:39;;;;;;;;;;;;;;;;;;4982455;28;19957;-82
2022/10/24 05:27:05;;;;;;;;;;;;;;;;;;4979132;28;19972;-83
2022/10/24 05:29:31;;;;;;;;;;;;;;;;;;4984048;28;19988;-82
2022/10/24 05:31:57;;;;;;;;;;;;;;;;;;4983506;28;19969;-82
2022/10/24 05:34:23;;;;;;;;;;;;;;;;;;4978062;28;19953;-82
2022/10/24 05:36:49;;;;;;;;;;;;;;;;;;4986364;28;20021;-81
2022/10/24 05:39:16;;;;;;;;;;;;;;;;;;5000734;28;20040;-82
2022/10/24 05:41:42;;;;;;;;;;;;;;;;;;4984811;28;20630;-82
2022/10/24 05:44:08;;;;;;;;;;;;;;;;;;4982873;28;19945;-82
2022/10/24 05:46:34;;;;;;;;;;;;;;;;;;4987269;28;19917;-82
2022/10/24 05:49:00;;;;;;;;;;;;;;;;;;4982505;28;19949;-80
2022/10/24 05:51:27;;;;;;;;;;;;;;;;;;4998696;28;19994;-81
2022/10/24 05:53:53;;;;;;;;;;;;;;;;;;4985928;28;19957;-81
2022/10/24 05:56:19;;;;;;;;;;;;;;;;;;4977635;28;20345;-81
2022/10/24 05:58:45;;;;;;;;;;;;;;;;;;4985878;28;19934;-82
2022/10/24 06:01:11;;;;;;;;;;;;;;;;;;4984910;28;20499;-82
2022/10/24 06:03:38;;;;;;;;;;;;;;;;;;4984903;28;20059;-82
2022/10/24 06:06:04;;;;;;;;;;;;;;;;;;4985534;28;19961;-81
2022/10/24 06:08:30;;;;;;;;;;;;;;;;;;4986272;28;19969;-81
2022/10/24 06:10:57;;;;;;;;;;;;;;;;;;4967399;28;19980;-81
2022/10/24 06:13:23;;;;;;;;;;;;;;;;;;5000197;28;20332;-81
2022/10/24 06:15:49;;;;;;;;;;;;;;;;;;4983371;28;19989;-83
2022/10/24 06:18:15;;;;;;;;;;;;;;;;;;4995605;28;20326;-81
2022/10/24 06:20:41;;;;;;;;;;;;;;;;;;4985100;28;19961;-81
2022/10/24 06:23:07;;;;;;;;;;;;;;;;;;4983153;28;19949;-81
2022/10/24 06:25:34;;;;;;;;;;;;;;;;;;4980874;28;19995;-81
2022/10/24 06:28:00;;;;;;;;;;;;;;;;;;4990637;28;19968;-82
2022/10/24 06:30:26;;;;;;;;;;;;;;;;;;4985197;28;20598;-83
2022/10/24 06:32:52;;;;;;;;;;;;;;;;;;4991422;28;20017;-81
2022/10/24 06:35:18;;;;;;;;;;;;;;;;;;4991583;28;20382;-82
2022/10/24 06:37:45;;;;;;;;;;;;;;;;;;4992185;28;19965;-82
2022/10/24 06:40:11;;;;;;;;;;;;;;;;;;4997554;28;19957;-82
2022/10/24 06:42:37;;;;;;;;;;;;;;;;;;4998969;28;19953;-82
2022/10/24 06:45:03;;;;;;;;;;;;;;;;;;4986860;28;19963;-82
2022/10/24 06:47:30;;;;;;;;;;;;;;;;;;4976217;28;20362;-81
2022/10/24 06:49:56;;;;;;;;;;;;;;;;;;4980994;28;19965;-81
2022/10/24 06:52:22;;;;;;;;;;;;;;;;;;4987550;28;20493;-82
2022/10/24 06:54:48;;;;;;;;;;;;;;;;;;4987361;28;20302;-82
2022/10/24 06:57:14;;;;;;;;;;;;;;;;;;4986970;28;20490;-82
2022/10/24 06:59:40;;;;;;;;;;;;;;;;;;4981732;28;19973;-82
2022/10/24 07:02:07;;;;;;;;;;;;;;;;;;4988855;28;19949;-83
2022/10/24 07:04:33;;;;;;;;;;;;;;;;;;4991851;28;20031;-83
2022/10/24 07:06:59;;;;;;;;;;;;;;;;;;4989449;28;20350;-83
2022/10/24 07:09:25;;;;;;;;;;;;;;;;;;4985709;28;19972;-83
2022/10/24 07:11:51;;;;;;;;;;;;;;;;;;4987120;28;19961;-86
2022/10/24 07:14:17;;;;;;;;;;;;;;;;;;4986704;28;19954;-86
2022/10/24 07:16:44;;;;;;;;;;;;;;;;;;4986759;28;19972;-88
2022/10/24 07:19:10;;;;;;;;;;;;;;;;;;4986629;28;19965;-88
2022/10/24 07:21:36;;;;;;;;;;;;;;;;;;4987073;28;19949;-88
2022/10/24 07:24:02;;;;;;;;;;;;;;;;;;5003020;28;20274;-88
2022/10/24 07:26:28;;;;;;;;;;;;;;;;;;4985994;28;19953;-88
2022/10/24 07:28:55;;;;;;;;;;;;;;;;;;4990514;28;19969;-87
2022/10/24 07:31:21;;;;;;;;;;;;;;;;;;4991882;28;20067;-88
2022/10/24 07:33:47;;;;;;;;;;;;;;;;;;4991009;28;19988;-88
2022/10/24 07:36:13;;;;;;;;;;;;;;;;;;4977090;28;19968;-87
2022/10/24 07:38:40;;;;;;;;;;;;;;;;;;4990949;28;19949;-88
2022/10/24 07:41:06;;;;;;;;;;;;;;;;;;4987837;28;20393;-88
2022/10/24 07:43:32;;;;;;;;;;;;;;;;;;4974085;28;19972;-88
2022/10/24 07:45:58;;;;;;;;;;;;;;;;;;4992190;28;19946;-88
2022/10/24 07:48:24;;;;;;;;;;;;;;;;;;4990911;28;19980;-87
2022/10/24 07:50:51;;;;;;;;;;;;;;;;;;4972085;28;19953;-86
2022/10/24 07:53:17;;;;;;;;;;;;;;;;;;4990071;28;19961;-87
2022/10/24 07:55:43;;;;;;;;;;;;;;;;;;4989519;28;19952;-87
2022/10/24 07:58:09;;;;;;;;;;;;;;;;;;4989976;28;19957;-87
2022/10/24 08:00:35;;;;;;;;;;;;;;;;;;4986814;28;19960;-87
2022/10/24 08:03:01;;;;;;;;;;;;;;;;;;4986243;28;19979;-87
2022/10/24 08:05:28;;;;;;;;;;;;;;;;;;4988572;28;19956;-88
2022/10/24 08:07:54;;;;;;;;;;;;;;;;;;4981610;28;19969;-87
2022/10/24 08:10:20;;;;;;;;;;;;;;;;;;4988819;28;19969;-87
2022/10/24 08:12:46;;;;;;;;;;;;;;;;;;4985680;28;19949;-86
2022/10/24 08:15:12;;;;;;;;;;;;;;;;;;5000495;28;19957;-84
2022/10/24 08:17:39;;;;;;;;;;;;;;;;;;4999508;28;19921;-85
2022/10/24 08:20:05;;;;;;;;;;;;;;;;;;4991841;28;20578;-88
2022/10/24 08:22:32;;;;;;;;;;;;;;;;;;4987987;28;20004;-87
2022/10/24 08:24:58;;;;;;;;;;;;;;;;;;4999212;28;19961;-88
2022/10/24 08:27:25;;;;;;;;;;;;;;;;;;4985946;28;19926;-87
2022/10/24 08:29:51;;;;;;;;;;;;;;;;;;4982445;28;19953;-88
2022/10/24 08:32:17;;;;;;;;;;;;;;;;;;4993654;28;19972;-87
2022/10/24 08:34:43;;;;;;;;;;;;;;;;;;4986572;28;19957;-87
2022/10/24 08:37:09;;;;;;;;;;;;;;;;;;4986321;28;19973;-87
2022/10/24 08:39:35;;;;;;;;;;;;;;;;;;4989286;28;19969;-88
2022/10/24 08:42:02;;;;;;;;;;;;;;;;;;4985656;28;20032;-85
2022/10/24 08:44:28;;;;;;;;;;;;;;;;;;4982614;28;19953;-85
2022/10/24 08:46:54;;;;;;;;;;;;;;;;;;4988490;28;20345;-84
2022/10/24 08:49:20;;;;;;;;;;;;;;;;;;4994508;28;19957;-85
2022/10/24 08:51:46;;;;;;;;;;;;;;;;;;4987650;28;19956;-85
2022/10/24 08:54:13;;;;;;;;;;;;;;;;;;4987591;28;19968;-85
2022/10/24 08:56:39;;;;;;;;;;;;;;;;;;4985507;28;19969;-85
2022/10/24 08:59:05;;;;;;;;;;;;;;;;;;4984596;28;19957;-86
2022/10/24 09:01:31;;;;;;;;;;;;;;;;;;4994065;28;20318;-85
2022/10/24 09:03:57;;;;;;;;;;;;;;;;;;4985397;28;19941;-85
2022/10/24 09:06:23;;;;;;;;;;;;;;;;;;4986142;28;19964;-85
2022/10/24 09:08:50;;;;;;;;;;;;;;;;;;4987366;28;19969;-83
2022/10/24 09:11:16;;;;;;;;;;;;;;;;;;4988333;28;19953;-85
2022/10/24 09:13:43;;;;;;;;;;;;;;;;;;4985485;28;19921;-86
2022/10/24 09:16:09;;;;;;;;;;;;;;;;;;4994742;28;19957;-85
2022/10/24 09:18:35;;;;;;;;;;;;;;;;;;4987621;28;19964;-87
2022/10/24 09:21:01;;;;;;;;;;;;;;;;;;4983771;28;19957;-85
2022/10/24 09:23:27;;;;;;;;;;;;;;;;;;4983997;28;19953;-85
2022/10/24 09:25:54;;;;;;;;;;;;;;;;;;5000199;28;19957;-85
2022/10/24 09:28:20;;;;;;;;;;;;;;;;;;5008778;28;19946;-85
2022/10/24 09:30:46;;;;;;;;;;;;;;;;;;4987305;28;19953;-84
2022/10/24 09:33:12;;;;;;;;;;;;;;;;;;4986074;28;20302;-85
2022/10/24 09:35:38;;;;;;;;;;;;;;;;;;4989290;28;19945;-83
2022/10/24 09:38:05;;;;;;;;;;;;;;;;;;4983104;28;19960;-84
2022/10/24 09:40:31;;;;;;;;;;;;;;;;;;4985783;28;19964;-84
2022/10/24 09:42:57;;;;;;;;;;;;;;;;;;4984267;28;19949;-81
2022/10/24 09:45:23;;;;;;;;;;;;;;;;;;4985486;28;20227;-83
2022/10/24 09:47:49;;;;;;;;;;;;;;;;;;4985005;28;19958;-79
2022/10/24 09:50:15;;;;;;;;;;;;;;;;;;5001233;28;19914;-83
2022/10/24 09:52:42;;;;;;;;;;;;;;;;;;4985370;28;19957;-83
2022/10/24 09:55:08;;;;;;;;;;;;;;;;;;4963733;28;19914;-82
2022/10/24 09:57:34;;;;;;;;;;;;;;;;;;4985109;28;20434;-83
2022/10/24 10:00:00;;;;;;;;;;;;;;;;;;4974489;28;19964;-82
2022/10/24 10:02:27;;;;;;;;;;;;;;;;;;4985425;28;19934;-82
2022/10/24 10:04:53;;;;;;;;;;;;;;;;;;4984498;28;19953;-82
2022/10/24 10:07:19;;;;;;;;;;;;;;;;;;4987443;28;20737;-82
2022/10/24 10:09:45;;;;;;;;;;;;;;;;;;4985839;28;19957;-82
2022/10/24 10:12:11;;;;;;;;;;;;;;;;;;4975137;28;20373;-82
2022/10/24 10:14:37;;;;;;;;;;;;;;;;;;4993794;28;19960;-83
2022/10/24 10:17:04;;;;;;;;;;;;;;;;;;4986783;28;19949;-82
2022/10/24 10:19:30;;;;;;;;;;;;;;;;;;4988069;28;19977;-83
2022/10/24 10:21:56;;;;;;;;;;;;;;;;;;4992378;28;19925;-81
2022/10/24 10:24:22;;;;;;;;;;;;;;;;;;4973300;28;19968;-83
2022/10/24 10:26:49;;;;;;;;;;;;;;;;;;4997139;28;19929;-83
2022/10/24 10:29:15;;;;;;;;;;;;;;;;;;4997768;28;21663;-82
2022/10/24 10:31:42;;;;;;;;;;;;;;;;;;5018670;28;19944;-82
2022/10/24 10:34:08;;;;;;;;;;;;;;;;;;4996089;28;19945;-78
2022/10/24 10:36:35;;;;;;;;;;;;;;;;;;4993261;28;20448;-78
2022/10/24 10:39:01;;;;;;;;;;;;;;;;;;4988369;28;20483;-78
2022/10/24 10:41:27;;;;;;;;;;;;;;;;;;4988675;28;19980;-78
2022/10/24 10:43:53;;;;;;;;;;;;;;;;;;4988563;28;20438;-77
2022/10/24 10:46:20;;;;;;;;;;;;;;;;;;4989859;28;19918;-78
2022/10/24 10:48:46;;;;;;;;;;;;;;;;;;4988341;28;19949;-78
2022/10/24 10:51:12;;;;;;;;;;;;;;;;;;4987109;28;20378;-79
2022/10/24 10:53:39;;;;;;;;;;;;;;;;;;4988561;28;19956;-78
2022/10/24 10:56:05;;;;;;;;;;;;;;;;;;4988765;28;19961;-77
2022/10/24 10:58:31;;;;;;;;;;;;;;;;;;4987263;28;19961;-78
2022/10/24 11:00:57;;;;;;;;;;;;;;;;;;4983108;28;20361;-78
2022/10/24 11:03:23;;;;;;;;;;;;;;;;;;4989222;28;19964;-78
2022/10/24 11:05:49;;;;;;;;;;;;;;;;;;4986997;28;19958;-77
2022/10/24 11:08:16;;;;;;;;;;;;;;;;;;4986241;28;19981;-77
2022/10/24 11:10:42;;;;;;;;;;;;;;;;;;5003602;28;20460;-77
2022/10/24 11:13:08;;;;;;;;;;;;;;;;;;4988024;28;19953;-77
2022/10/24 11:15:34;;;;;;;;;;;;;;;;;;4988301;28;19953;-77
2022/10/24 11:18:00;;;;;;;;;;;;;;;;;;5003241;28;19956;-77
2022/10/24 11:20:26;;;;;;;;;;;;;;;;;;4991577;28;19976;-77
2022/10/24 11:22:53;;;;;;;;;;;;;;;;;;4988859;28;19957;-76
2022/10/24 11:25:19;;;;;;;;;;;;;;;;;;4990499;28;19941;-77
2022/10/24 11:27:45;;;;;;;;;;;;;;;;;;4988302;28;19962;-77
2022/10/24 11:30:11;;;;;;;;;;;;;;;;;;4986628;28;19980;-77
2022/10/24 11:32:37;;;;;;;;;;;;;;;;;;4988552;28;20371;-77
2022/10/24 11:35:04;;;;;;;;;;;;;;;;;;4999257;28;19956;-77
2022/10/24 11:37:30;;;;;;;;;;;;;;;;;;4987616;28;19949;-77
2022/10/24 11:39:57;;;;;;;;;;;;;;;;;;4987924;28;19968;-76
2022/10/24 11:42:23;;;;;;;;;;;;;;;;;;4994155;28;19949;-78
2022/10/24 11:44:49;;;;;;;;;;;;;;;;;;4988225;28;19952;-77
2022/10/24 11:47:15;;;;;;;;;;;;;;;;;;4990578;28;21569;-77
2022/10/24 11:49:41;;;;;;;;;;;;;;;;;;4987730;28;19918;-77
2022/10/24 11:52:08;;;;;;;;;;;;;;;;;;4991756;28;20510;-78
2022/10/24 11:54:34;;;;;;;;;;;;;;;;;;4987980;28;19953;-77
2022/10/24 11:57:00;;;;;;;;;;;;;;;;;;4988260;28;20332;-77
2022/10/24 11:59:26;;;;;;;;;;;;;;;;;;4986867;28;19976;-77
2022/10/24 12:01:52;;;;;;;;;;;;;;;;;;4982527;28;20055;-77
2022/10/24 12:04:19;;;;;;;;;;;;;;;;;;4981628;28;19961;-77
2022/10/24 12:06:45;;;;;;;;;;;;;;;;;;4987501;28;19950;-77
2022/10/24 12:09:11;;;;;;;;;;;;;;;;;;4989527;28;19960;-77
2022/10/24 12:11:37;;;;;;;;;;;;;;;;;;4985819;28;19976;-77
2022/10/24 12:14:05;;;;;;;;;;;;;;;;;;4984596;28;19953;-77
2022/10/24 12:16:31;;;;;;;;;;;;;;;;;;4987473;28;19957;-78
2022/10/24 12:18:57;;;;;;;;;;;;;;;;;;4984928;28;20013;-84
2022/10/24 12:21:24;;;;;;;;;;;;;;;;;;4986385;28;19917;-84
2022/10/24 12:23:50;;;;;;;;;;;;;;;;;;4986450;28;19974;-84
2022/10/24 12:26:17;;;;;;;;;;;;;;;;;;5005019;28;19926;-80
2022/10/24 12:28:43;;;;;;;;;;;;;;;;;;4982673;28;20017;-80
2022/10/24 12:31:09;;;;;;;;;;;;;;;;;;4984839;28;19965;-80
2022/10/24 12:33:36;;;;;;;;;;;;;;;;;;4969120;28;19957;-79
2022/10/24 12:36:02;;;;;;;;;;;;;;;;;;4988698;28;20279;-79
2022/10/24 12:38:28;;;;;;;;;;;;;;;;;;4990348;28;19957;-80
2022/10/24 12:40:54;;;;;;;;;;;;;;;;;;4984893;28;19960;-79
2022/10/24 12:43:20;;;;;;;;;;;;;;;;;;4983520;28;20311;-80
2022/10/24 12:45:46;;;;;;;;;;;;;;;;;;4986690;28;20026;-80
2022/10/24 12:48:13;;;;;;;;;;;;;;;;;;4994933;28;19956;-80
2022/10/24 12:50:39;;;;;;;;;;;;;;;;;;4987506;28;19917;-80
2022/10/24 12:53:05;;;;;;;;;;;;;;;;;;4978997;28;19945;-80
2022/10/24 12:55:32;;;;;;;;;;;;;;;;;;4999352;28;21043;-80
2022/10/24 12:57:58;;;;;;;;;;;;;;;;;;4984860;28;20372;-80
2022/10/24 13:00:24;;;;;;;;;;;;;;;;;;4989758;28;20044;-79
2022/10/24 13:02:50;;;;;;;;;;;;;;;;;;4991391;28;20337;-79
2022/10/24 13:05:17;;;;;;;;;;;;;;;;;;4986559;28;19953;-79
2022/10/24 13:07:43;;;;;;;;;;;;;;;;;;4986104;28;20899;-80
2022/10/24 13:10:09;;;;;;;;;;;;;;;;;;4986972;28;19968;-81
2022/10/24 13:12:36;;;;;;;;;;;;;;;;;;4991316;28;20295;-80
2022/10/24 13:15:02;;;;;;;;;;;;;;;;;;4992180;28;20324;-82
2022/10/24 13:17:28;;;;;;;;;;;;;;;;;;4981520;28;19971;-81
2022/10/24 13:19:54;;;;;;;;;;;;;;;;;;4977472;28;19961;-80
2022/10/24 13:22:20;;;;;;;;;;;;;;;;;;4987443;28;19953;-81
2022/10/24 13:24:46;;;;;;;;;;;;;;;;;;4986181;28;20592;-81
2022/10/24 13:27:13;;;;;;;;;;;;;;;;;;4992233;28;19961;-81
2022/10/24 13:29:40;;;;;;;;;;;;;;;;;;4985764;28;20350;-81
2022/10/24 13:32:06;;;;;;;;;;;;;;;;;;4985969;28;19952;-81
2022/10/24 13:34:32;;;;;;;;;;;;;;;;;;4995894;28;19964;-81
2022/10/24 13:36:58;;;;;;;;;;;;;;;;;;4971240;28;19965;-81
2022/10/24 13:39:24;;;;;;;;;;;;;;;;;;4987156;28;20003;-81
2022/10/24 13:41:51;;;;;;;;;;;;;;;;;;4988855;28;19961;-80
2022/10/24 13:44:17;;;;;;;;;;;;;;;;;;4990342;28;19949;-81
2022/10/24 13:46:43;;;;;;;;;;;;;;;;;;4969144;28;19956;-81
2022/10/24 13:49:09;;;;;;;;;;;;;;;;;;4985046;28;20271;-81
2022/10/24 13:51:35;;;;;;;;;;;;;;;;;;4985624;28;19965;-81
2022/10/24 13:54:02;;;;;;;;;;;;;;;;;;4984617;28;19960;-80
2022/10/24 13:56:28;;;;;;;;;;;;;;;;;;4985218;28;20041;-85
2022/10/24 13:58:54;;;;;;;;;;;;;;;;;;4966507;28;19965;-84
2022/10/24 14:01:20;;;;;;;;;;;;;;;;;;4986288;28;19969;-84
2022/10/24 14:03:47;;;;;;;;;;;;;;;;;;4968186;28;19953;-84
2022/10/24 14:06:13;;;;;;;;;;;;;;;;;;4985574;28;19965;-84
2022/10/24 14:08:39;;;;;;;;;;;;;;;;;;4967956;28;19975;-83
2022/10/24 14:11:05;;;;;;;;;;;;;;;;;;4984938;28;19942;-85
2022/10/24 14:13:31;;;;;;;;;;;;;;;;;;4985355;28;19972;-85
2022/10/24 14:15:57;;;;;;;;;;;;;;;;;;4986913;28;19957;-84
2022/10/24 14:18:24;;;;;;;;;;;;;;;;;;4984408;28;20323;-85
2022/10/24 14:20:50;;;;;;;;;;;;;;;;;;4950729;28;19976;-81
2022/10/24 14:23:16;;;;;;;;;;;;;;;;;;4983241;28;20443;-84
2022/10/24 14:25:42;;;;;;;;;;;;;;;;;;4990295;28;19952;-84
2022/10/24 14:28:08;;;;;;;;;;;;;;;;;;4985282;28;20522;-85
2022/10/24 14:30:35;;;;;;;;;;;;;;;;;;4985249;28;19949;-84
2022/10/24 14:33:01;;;;;;;;;;;;;;;;;;4968630;28;20748;-84
2022/10/24 14:35:27;;;;;;;;;;;;;;;;;;4974813;28;19953;-84
2022/10/24 14:37:53;;;;;;;;;;;;;;;;;;4967899;28;19990;-83
2022/10/24 14:40:19;;;;;;;;;;;;;;;;;;4968235;28;19973;-85
2022/10/24 14:42:46;;;;;;;;;;;;;;;;;;4985594;28;19957;-84
2022/10/24 14:45:12;;;;;;;;;;;;;;;;;;4984357;28;19964;-85
2022/10/24 14:47:38;;;;;;;;;;;;;;;;;;4985900;28;20184;-84
2022/10/24 14:50:04;;;;;;;;;;;;;;;;;;4983768;28;19968;-77
2022/10/24 14:52:35;;;;;;;;;;;;;;;;;;4965250;28;20383;-78
2022/10/24 14:55:02;;;;;;;;;;;;;;;;;;4982669;28;19991;-77
2022/10/24 14:57:28;;;;;;;;;;;;;;;;;;4982780;28;19968;-77
2022/10/24 14:59:54;;;;;;;;;;;;;;;;;;4983990;28;19976;-77
2022/10/24 15:02:20;;;;;;;;;;;;;;;;;;4971589;28;20577;-78
2022/10/24 15:04:46;;;;;;;;;;;;;;;;;;4982055;28;19961;-78
2022/10/24 15:07:13;;;;;;;;;;;;;;;;;;4982722;28;19949;-79
2022/10/24 15:09:40;;;;;;;;;;;;;;;;;;4984292;28;19964;-78
2022/10/24 15:12:06;;;;;;;;;;;;;;;;;;4965383;28;19950;-77
2022/10/24 15:14:35;;;;;;;;;;;;;;;;;;4986561;28;20409;-78
2022/10/24 15:17:01;;;;;;;;;;;;;;;;;;4986255;28;19965;-77
2022/10/24 15:19:27;;;;;;;;;;;;;;;;;;4969289;28;19965;-78
2022/10/24 15:21:54;;;;;;;;;;;;;;;;;;4984350;28;19969;-78
2022/10/24 15:24:20;;;;;;;;;;;;;;;;;;4985596;28;19961;-76
2022/10/24 15:26:46;;;;;;;;;;;;;;;;;;4987606;28;19913;-77
2022/10/24 15:29:12;;;;;;;;;;;;;;;;;;4979420;28;19926;-76
2022/10/24 15:31:38;;;;;;;;;;;;;;;;;;4973402;28;20489;-76
2022/10/24 15:34:07;;;;;;;;;;;;;;;;;;4968414;28;19964;-76
2022/10/24 15:36:33;;;;;;;;;;;;;;;;;;4987025;28;20596;-76
2022/10/24 15:39:00;;;;;;;;;;;;;;;;;;4974815;28;19961;-76
2022/10/24 15:41:26;;;;;;;;;;;;;;;;;;4969208;28;19977;-77
2022/10/24 15:43:52;;;;;;;;;;;;;;;;;;4985203;28;19955;-76
2022/10/24 15:46:18;;;;;;;;;;;;;;;;;;4985773;28;19961;-77
2022/10/24 15:48:45;;;;;;;;;;;;;;;;;;4984533;28;20009;-77
2022/10/24 15:51:13;;;;;;;;;;;;;;;;;;4970750;28;20378;-76
2022/10/24 15:53:39;;;;;;;;;;;;;;;;;;4983414;28;19988;-75
2022/10/24 15:56:05;;;;;;;;;;;;;;;;;;4980205;28;19961;-77
2022/10/24 15:58:31;;;;;;;;;;;;;;;;;;4972034;28;19961;-76
2022/10/24 16:00:58;;;;;;;;;;;;;;;;;;4994320;28;19972;-75
2022/10/24 16:03:24;;;;;;;;;;;;;;;;;;4971275;28;19917;-76
2022/10/24 16:05:51;;;;;;;;;;;;;;;;;;4992745;28;20294;-76
2022/10/24 16:08:20;;;;;;;;;;;;;;;;;;4967991;28;21429;-76
2022/10/24 16:10:46;;;;;;;;;;;;;;;;;;4973639;28;20052;-76
2022/10/24 16:13:13;;;;;;;;;;;;;;;;;;4983289;28;20048;-77
2022/10/24 16:15:39;;;;;;;;;;;;;;;;;;4985502;28;19913;-76
2022/10/24 16:18:05;;;;;;;;;;;;;;;;;;4982023;28;20000;-76
2022/10/24 16:20:31;;;;;;;;;;;;;;;;;;4969439;28;19965;-76
2022/10/24 16:22:58;;;;;;;;;;;;;;;;;;4984739;28;19921;-76
2022/10/24 16:25:24;;;;;;;;;;;;;;;;;;4984037;28;19975;-76
2022/10/24 16:27:50;;;;;;;;;;;;;;;;;;4985670;28;19992;-76
2022/10/24 16:30:16;;;;;;;;;;;;;;;;;;4967603;28;21070;-76
2022/10/24 16:32:42;;;;;;;;;;;;;;;;;;4983713;28;19957;-76
2022/10/24 16:35:09;;;;;;;;;;;;;;;;;;4953941;28;19920;-76
2022/10/24 16:37:35;;;;;;;;;;;;;;;;;;4963615;28;19965;-75